Ituzaingo, Argentina
Current Conditions -  °F | °C
As of 1:00 PM on Friday 28 Nov 2014 (Local Time) from SARP Reporting Station
Scattered Clouds Scattered Clouds  
Wind Chill: 33°   Ceiling: Unl
Heat Index: 35°   Visibility: 6mi
Dew Point: 20°   Wind: 8mph
Humidity: 46%   Direction: 360°N
Pressure: 29.91"   Gusts: NA
Location:  27.6°S, 56.68°W
Report Text: SARP 281600Z 36007KT 9999 SCT030 33/20 Q1013
Loading
Personal Weather Stations






























Interactive Weather Map New forecast layout! Learn more

10-Day Weather Forecast

Advertisements
Track Severe Weather on mobile